sensor_id;sensor_type;location;lat;lon;timestamp;P1;durP1;ratioP1;P2;durP2;ratioP2
68010;SDS011;54794;48.348;7.878;2022-07-29T00:01:00;5.22;;;1.35;;
68010;SDS011;54794;48.348;7.878;2022-07-29T00:03:27;4.35;;;1.60;;
68010;SDS011;54794;48.348;7.878;2022-07-29T00:05:54;1.73;;;1.35;;
68010;SDS011;54794;48.348;7.878;2022-07-29T00:08:21;2.28;;;1.10;;
68010;SDS011;54794;48.348;7.878;2022-07-29T00:10:49;2.85;;;1.27;;
68010;SDS011;54794;48.348;7.878;2022-07-29T00:13:16;1.85;;;1.38;;
68010;SDS011;54794;48.348;7.878;2022-07-29T00:15:56;4.97;;;1.50;;
68010;SDS011;54794;48.348;7.878;2022-07-29T00:18:29;2.70;;;1.40;;
68010;SDS011;54794;48.348;7.878;2022-07-29T00:20:56;3.70;;;2.05;;
68010;SDS011;54794;48.348;7.878;2022-07-29T00:23:23;2.10;;;1.52;;
68010;SDS011;54794;48.348;7.878;2022-07-29T00:25:50;2.35;;;1.25;;
68010;SDS011;54794;48.348;7.878;2022-07-29T00:28:17;3.17;;;1.70;;
68010;SDS011;54794;48.348;7.878;2022-07-29T00:30:44;1.80;;;1.35;;
68010;SDS011;54794;48.348;7.878;2022-07-29T00:33:11;3.33;;;1.67;;
68010;SDS011;54794;48.348;7.878;2022-07-29T00:35:38;2.20;;;1.40;;
68010;SDS011;54794;48.348;7.878;2022-07-29T00:38:14;2.78;;;1.67;;
68010;SDS011;54794;48.348;7.878;2022-07-29T00:40:45;2.63;;;1.33;;
68010;SDS011;54794;48.348;7.878;2022-07-29T00:43:13;3.17;;;1.50;;
68010;SDS011;54794;48.348;7.878;2022-07-29T00:45:41;3.53;;;1.60;;
68010;SDS011;54794;48.348;7.878;2022-07-29T00:48:08;2.83;;;1.55;;
68010;SDS011;54794;48.348;7.878;2022-07-29T00:50:36;2.10;;;1.50;;
68010;SDS011;54794;48.348;7.878;2022-07-29T00:55:33;1.95;;;1.40;;
68010;SDS011;54794;48.348;7.878;2022-07-29T00:58:00;1.90;;;1.60;;
68010;SDS011;54794;48.348;7.878;2022-07-29T01:00:28;2.92;;;1.90;;
68010;SDS011;54794;48.348;7.878;2022-07-29T01:02:55;1.60;;;1.23;;
68010;SDS011;54794;48.348;7.878;2022-07-29T01:05:23;2.22;;;1.30;;
68010;SDS011;54794;48.348;7.878;2022-07-29T01:08:14;1.77;;;1.40;;
68010;SDS011;54794;48.348;7.878;2022-07-29T01:10:42;2.90;;;1.70;;
68010;SDS011;54794;48.348;7.878;2022-07-29T01:13:13;2.10;;;1.45;;
68010;SDS011;54794;48.348;7.878;2022-07-29T01:15:54;2.75;;;1.67;;
68010;SDS011;54794;48.348;7.878;2022-07-29T01:18:37;2.17;;;1.48;;
68010;SDS011;54794;48.348;7.878;2022-07-29T01:30:16;2.05;;;1.50;;
68010;SDS011;54794;48.348;7.878;2022-07-29T01:35:17;1.85;;;1.20;;
68010;SDS011;54794;48.348;7.878;2022-07-29T01:37:56;2.70;;;1.75;;
68010;SDS011;54794;48.348;7.878;2022-07-29T01:40:31;2.50;;;1.45;;
68010;SDS011;54794;48.348;7.878;2022-07-29T01:43:21;1.70;;;1.38;;
68010;SDS011;54794;48.348;7.878;2022-07-29T01:46:05;3.10;;;1.60;;
68010;SDS011;54794;48.348;7.878;2022-07-29T01:51:50;2.72;;;1.52;;
68010;SDS011;54794;48.348;7.878;2022-07-29T01:54:30;2.20;;;1.58;;
68010;SDS011;54794;48.348;7.878;2022-07-29T01:59:34;1.83;;;1.38;;
68010;SDS011;54794;48.348;7.878;2022-07-29T02:02:03;2.55;;;1.33;;
68010;SDS011;54794;48.348;7.878;2022-07-29T02:04:35;2.97;;;1.70;;
68010;SDS011;54794;48.348;7.878;2022-07-29T02:07:05;2.08;;;1.45;;
68010;SDS011;54794;48.348;7.878;2022-07-29T02:09:35;2.17;;;1.50;;
68010;SDS011;54794;48.348;7.878;2022-07-29T02:12:05;1.75;;;1.52;;
68010;SDS011;54794;48.348;7.878;2022-07-29T02:14:36;2.90;;;1.67;;
68010;SDS011;54794;48.348;7.878;2022-07-29T02:17:12;1.98;;;1.48;;
68010;SDS011;54794;48.348;7.878;2022-07-29T02:19:47;2.42;;;1.75;;
68010;SDS011;54794;48.348;7.878;2022-07-29T02:22:15;2.53;;;1.60;;
68010;SDS011;54794;48.348;7.878;2022-07-29T02:24:45;2.85;;;1.73;;
68010;SDS011;54794;48.348;7.878;2022-07-29T02:27:14;3.65;;;1.77;;
68010;SDS011;54794;48.348;7.878;2022-07-29T02:29:45;2.28;;;1.67;;
68010;SDS011;54794;48.348;7.878;2022-07-29T02:32:15;2.92;;;1.55;;
68010;SDS011;54794;48.348;7.878;2022-07-29T02:34:44;2.20;;;1.75;;
68010;SDS011;54794;48.348;7.878;2022-07-29T02:37:13;2.35;;;1.77;;
68010;SDS011;54794;48.348;7.878;2022-07-29T02:39:43;2.10;;;1.73;;
68010;SDS011;54794;48.348;7.878;2022-07-29T02:42:14;2.70;;;1.60;;
68010;SDS011;54794;48.348;7.878;2022-07-29T02:44:44;1.55;;;1.33;;
68010;SDS011;54794;48.348;7.878;2022-07-29T02:47:13;2.00;;;1.80;;
68010;SDS011;54794;48.348;7.878;2022-07-29T02:50:00;2.05;;;1.42;;
68010;SDS011;54794;48.348;7.878;2022-07-29T02:52:44;1.95;;;1.50;;
68010;SDS011;54794;48.348;7.878;2022-07-29T02:55:29;2.08;;;1.80;;
68010;SDS011;54794;48.348;7.878;2022-07-29T02:58:07;4.90;;;1.77;;
68010;SDS011;54794;48.348;7.878;2022-07-29T03:00:52;2.15;;;1.65;;
68010;SDS011;54794;48.348;7.878;2022-07-29T03:03:19;2.78;;;1.52;;
68010;SDS011;54794;48.348;7.878;2022-07-29T03:05:52;3.35;;;1.85;;
68010;SDS011;54794;48.348;7.878;2022-07-29T03:08:22;3.55;;;1.77;;
68010;SDS011;54794;48.348;7.878;2022-07-29T03:10:50;2.72;;;1.70;;
68010;SDS011;54794;48.348;7.878;2022-07-29T03:13:19;4.50;;;2.00;;
68010;SDS011;54794;48.348;7.878;2022-07-29T03:15:46;1.83;;;1.48;;
68010;SDS011;54794;48.348;7.878;2022-07-29T03:18:14;2.67;;;1.70;;
68010;SDS011;54794;48.348;7.878;2022-07-29T03:23:08;2.50;;;1.75;;
68010;SDS011;54794;48.348;7.878;2022-07-29T03:25:35;2.30;;;1.70;;
68010;SDS011;54794;48.348;7.878;2022-07-29T03:28:04;2.40;;;1.67;;
68010;SDS011;54794;48.348;7.878;2022-07-29T03:30:31;3.45;;;1.52;;
68010;SDS011;54794;48.348;7.878;2022-07-29T03:32:58;2.60;;;1.98;;
68010;SDS011;54794;48.348;7.878;2022-07-29T03:35:25;3.53;;;1.90;;
68010;SDS011;54794;48.348;7.878;2022-07-29T03:37:51;2.58;;;1.85;;
68010;SDS011;54794;48.348;7.878;2022-07-29T03:40:22;2.75;;;1.75;;
68010;SDS011;54794;48.348;7.878;2022-07-29T03:42:57;1.45;;;1.27;;
68010;SDS011;54794;48.348;7.878;2022-07-29T03:45:28;2.33;;;1.63;;
68010;SDS011;54794;48.348;7.878;2022-07-29T03:47:59;2.72;;;1.75;;
68010;SDS011;54794;48.348;7.878;2022-07-29T03:50:36;1.70;;;1.50;;
68010;SDS011;54794;48.348;7.878;2022-07-29T03:53:03;2.60;;;1.73;;
68010;SDS011;54794;48.348;7.878;2022-07-29T03:55:32;1.90;;;1.45;;
68010;SDS011;54794;48.348;7.878;2022-07-29T03:58:06;2.00;;;1.60;;
68010;SDS011;54794;48.348;7.878;2022-07-29T04:00:35;2.00;;;1.80;;
68010;SDS011;54794;48.348;7.878;2022-07-29T04:03:04;2.17;;;1.80;;
68010;SDS011;54794;48.348;7.878;2022-07-29T04:05:36;2.80;;;1.58;;
68010;SDS011;54794;48.348;7.878;2022-07-29T04:08:03;1.95;;;1.48;;
68010;SDS011;54794;48.348;7.878;2022-07-29T04:13:00;1.67;;;1.52;;
68010;SDS011;54794;48.348;7.878;2022-07-29T04:15:27;2.03;;;1.67;;
68010;SDS011;54794;48.348;7.878;2022-07-29T04:17:56;2.33;;;1.80;;
68010;SDS011;54794;48.348;7.878;2022-07-29T04:20:24;2.45;;;1.45;;
68010;SDS011;54794;48.348;7.878;2022-07-29T04:22:51;2.80;;;1.92;;
68010;SDS011;54794;48.348;7.878;2022-07-29T04:25:18;2.25;;;1.77;;
68010;SDS011;54794;48.348;7.878;2022-07-29T04:27:46;3.85;;;1.83;;
68010;SDS011;54794;48.348;7.878;2022-07-29T04:30:27;4.18;;;2.25;;
68010;SDS011;54794;48.348;7.878;2022-07-29T04:32:56;2.58;;;2.05;;
68010;SDS011;54794;48.348;7.878;2022-07-29T04:35:24;3.00;;;1.55;;
68010;SDS011;54794;48.348;7.878;2022-07-29T04:37:51;2.13;;;1.92;;
68010;SDS011;54794;48.348;7.878;2022-07-29T04:40:18;4.13;;;1.55;;
68010;SDS011;54794;48.348;7.878;2022-07-29T04:42:45;3.00;;;1.80;;
68010;SDS011;54794;48.348;7.878;2022-07-29T04:45:14;2.42;;;2.03;;
68010;SDS011;54794;48.348;7.878;2022-07-29T04:47:47;2.90;;;1.77;;
68010;SDS011;54794;48.348;7.878;2022-07-29T04:50:14;2.10;;;1.90;;
68010;SDS011;54794;48.348;7.878;2022-07-29T04:52:41;3.85;;;2.03;;
68010;SDS011;54794;48.348;7.878;2022-07-29T04:55:08;3.03;;;2.30;;
68010;SDS011;54794;48.348;7.878;2022-07-29T04:57:35;2.20;;;1.80;;
68010;SDS011;54794;48.348;7.878;2022-07-29T05:00:03;2.17;;;1.88;;
68010;SDS011;54794;48.348;7.878;2022-07-29T05:02:32;3.13;;;2.20;;
68010;SDS011;54794;48.348;7.878;2022-07-29T05:04:59;4.43;;;2.17;;
68010;SDS011;54794;48.348;7.878;2022-07-29T05:07:25;3.90;;;2.03;;
68010;SDS011;54794;48.348;7.878;2022-07-29T05:09:52;3.65;;;2.10;;
68010;SDS011;54794;48.348;7.878;2022-07-29T05:12:19;3.22;;;2.33;;
68010;SDS011;54794;48.348;7.878;2022-07-29T05:14:46;3.17;;;2.05;;
68010;SDS011;54794;48.348;7.878;2022-07-29T05:17:14;2.45;;;2.20;;
68010;SDS011;54794;48.348;7.878;2022-07-29T05:19:40;3.97;;;1.90;;
68010;SDS011;54794;48.348;7.878;2022-07-29T05:22:07;6.25;;;2.25;;
68010;SDS011;54794;48.348;7.878;2022-07-29T05:24:34;1.90;;;1.70;;
68010;SDS011;54794;48.348;7.878;2022-07-29T05:27:01;2.95;;;2.25;;
68010;SDS011;54794;48.348;7.878;2022-07-29T05:29:28;3.80;;;1.80;;
68010;SDS011;54794;48.348;7.878;2022-07-29T05:32:10;5.47;;;2.05;;
68010;SDS011;54794;48.348;7.878;2022-07-29T05:34:39;5.35;;;1.90;;
68010;SDS011;54794;48.348;7.878;2022-07-29T05:37:17;2.25;;;2.00;;
68010;SDS011;54794;48.348;7.878;2022-07-29T05:39:45;4.30;;;2.08;;
68010;SDS011;54794;48.348;7.878;2022-07-29T05:42:16;2.08;;;1.80;;
68010;SDS011;54794;48.348;7.878;2022-07-29T05:44:42;3.47;;;1.98;;
68010;SDS011;54794;48.348;7.878;2022-07-29T05:47:09;2.63;;;2.17;;
68010;SDS011;54794;48.348;7.878;2022-07-29T05:49:37;2.83;;;2.00;;
68010;SDS011;54794;48.348;7.878;2022-07-29T05:52:04;2.10;;;1.67;;
68010;SDS011;54794;48.348;7.878;2022-07-29T05:54:31;4.53;;;2.05;;
68010;SDS011;54794;48.348;7.878;2022-07-29T05:56:58;2.63;;;1.73;;
68010;SDS011;54794;48.348;7.878;2022-07-29T05:59:25;3.90;;;2.10;;
68010;SDS011;54794;48.348;7.878;2022-07-29T06:01:55;3.45;;;2.00;;
68010;SDS011;54794;48.348;7.878;2022-07-29T06:04:23;3.33;;;2.03;;
68010;SDS011;54794;48.348;7.878;2022-07-29T06:06:51;2.40;;;1.70;;
68010;SDS011;54794;48.348;7.878;2022-07-29T06:09:18;2.85;;;2.08;;
68010;SDS011;54794;48.348;7.878;2022-07-29T06:11:45;2.88;;;1.98;;
68010;SDS011;54794;48.348;7.878;2022-07-29T06:14:12;3.42;;;2.05;;
68010;SDS011;54794;48.348;7.878;2022-07-29T06:19:07;5.68;;;1.90;;
68010;SDS011;54794;48.348;7.878;2022-07-29T06:21:34;2.35;;;1.80;;
68010;SDS011;54794;48.348;7.878;2022-07-29T06:24:07;2.10;;;1.42;;
68010;SDS011;54794;48.348;7.878;2022-07-29T06:26:34;1.90;;;1.50;;
68010;SDS011;54794;48.348;7.878;2022-07-29T06:29:05;2.22;;;1.90;;
68010;SDS011;54794;48.348;7.878;2022-07-29T06:31:33;2.03;;;1.70;;
68010;SDS011;54794;48.348;7.878;2022-07-29T06:34:00;2.35;;;2.00;;
68010;SDS011;54794;48.348;7.878;2022-07-29T06:36:28;1.88;;;1.67;;
68010;SDS011;54794;48.348;7.878;2022-07-29T06:38:57;2.20;;;1.65;;
68010;SDS011;54794;48.348;7.878;2022-07-29T06:41:24;1.88;;;1.70;;
68010;SDS011;54794;48.348;7.878;2022-07-29T06:43:52;1.92;;;1.73;;
68010;SDS011;54794;48.348;7.878;2022-07-29T06:46:22;4.25;;;2.17;;
68010;SDS011;54794;48.348;7.878;2022-07-29T06:48:49;2.25;;;1.88;;
68010;SDS011;54794;48.348;7.878;2022-07-29T06:51:19;3.90;;;1.63;;
68010;SDS011;54794;48.348;7.878;2022-07-29T06:53:50;1.95;;;1.42;;
68010;SDS011;54794;48.348;7.878;2022-07-29T06:56:28;6.55;;;2.10;;
68010;SDS011;54794;48.348;7.878;2022-07-29T06:59:05;3.70;;;1.50;;
68010;SDS011;54794;48.348;7.878;2022-07-29T07:01:33;2.45;;;1.70;;
68010;SDS011;54794;48.348;7.878;2022-07-29T07:04:04;2.85;;;1.25;;
68010;SDS011;54794;48.348;7.878;2022-07-29T07:06:31;2.03;;;1.30;;
68010;SDS011;54794;48.348;7.878;2022-07-29T07:08:58;2.10;;;1.25;;
68010;SDS011;54794;48.348;7.878;2022-07-29T07:11:26;2.38;;;1.40;;
68010;SDS011;54794;48.348;7.878;2022-07-29T07:13:54;1.85;;;1.30;;
68010;SDS011;54794;48.348;7.878;2022-07-29T07:16:27;3.47;;;1.80;;
68010;SDS011;54794;48.348;7.878;2022-07-29T07:18:55;1.70;;;1.40;;
68010;SDS011;54794;48.348;7.878;2022-07-29T07:21:22;2.25;;;1.20;;
68010;SDS011;54794;48.348;7.878;2022-07-29T07:23:49;4.03;;;1.30;;
68010;SDS011;54794;48.348;7.878;2022-07-29T07:26:17;4.13;;;1.50;;
68010;SDS011;54794;48.348;7.878;2022-07-29T07:28:44;3.75;;;1.23;;
68010;SDS011;54794;48.348;7.878;2022-07-29T07:31:11;6.28;;;1.30;;
68010;SDS011;54794;48.348;7.878;2022-07-29T07:33:38;2.40;;;1.10;;
68010;SDS011;54794;48.348;7.878;2022-07-29T07:38:33;3.33;;;1.45;;
68010;SDS011;54794;48.348;7.878;2022-07-29T07:41:00;2.25;;;1.38;;
68010;SDS011;54794;48.348;7.878;2022-07-29T07:43:27;1.85;;;1.40;;
68010;SDS011;54794;48.348;7.878;2022-07-29T07:48:22;1.27;;;0.95;;
68010;SDS011;54794;48.348;7.878;2022-07-29T07:50:49;1.52;;;1.40;;
68010;SDS011;54794;48.348;7.878;2022-07-29T07:53:16;1.27;;;1.00;;
68010;SDS011;54794;48.348;7.878;2022-07-29T07:55:44;2.53;;;1.27;;
68010;SDS011;54794;48.348;7.878;2022-07-29T07:58:31;5.00;;;1.60;;
68010;SDS011;54794;48.348;7.878;2022-07-29T08:00:59;1.90;;;1.27;;
68010;SDS011;54794;48.348;7.878;2022-07-29T08:03:26;2.20;;;1.50;;
68010;SDS011;54794;48.348;7.878;2022-07-29T08:05:53;1.55;;;1.27;;
68010;SDS011;54794;48.348;7.878;2022-07-29T08:08:20;2.65;;;1.52;;
68010;SDS011;54794;48.348;7.878;2022-07-29T08:10:47;3.63;;;1.33;;
68010;SDS011;54794;48.348;7.878;2022-07-29T08:13:23;2.40;;;1.20;;
68010;SDS011;54794;48.348;7.878;2022-07-29T08:15:54;1.33;;;1.00;;
68010;SDS011;54794;48.348;7.878;2022-07-29T08:18:24;2.70;;;1.30;;
68010;SDS011;54794;48.348;7.878;2022-07-29T08:20:57;2.00;;;1.30;;
68010;SDS011;54794;48.348;7.878;2022-07-29T08:23:24;4.80;;;1.40;;
68010;SDS011;54794;48.348;7.878;2022-07-29T08:26:12;3.77;;;1.40;;
68010;SDS011;54794;48.348;7.878;2022-07-29T08:28:41;5.18;;;1.77;;
68010;SDS011;54794;48.348;7.878;2022-07-29T08:31:12;3.22;;;1.35;;
68010;SDS011;54794;48.348;7.878;2022-07-29T08:33:40;3.35;;;1.55;;
68010;SDS011;54794;48.348;7.878;2022-07-29T08:36:07;1.70;;;1.17;;
68010;SDS011;54794;48.348;7.878;2022-07-29T08:38:35;2.17;;;1.20;;
68010;SDS011;54794;48.348;7.878;2022-07-29T08:41:01;5.63;;;1.35;;
68010;SDS011;54794;48.348;7.878;2022-07-29T08:43:29;5.63;;;1.80;;
68010;SDS011;54794;48.348;7.878;2022-07-29T08:45:56;2.55;;;1.40;;
68010;SDS011;54794;48.348;7.878;2022-07-29T08:48:23;1.88;;;1.10;;
68010;SDS011;54794;48.348;7.878;2022-07-29T08:50:54;1.80;;;1.08;;
68010;SDS011;54794;48.348;7.878;2022-07-29T08:53:23;1.70;;;1.33;;
68010;SDS011;54794;48.348;7.878;2022-07-29T08:55:54;1.98;;;1.20;;
68010;SDS011;54794;48.348;7.878;2022-07-29T08:58:23;1.65;;;0.90;;
68010;SDS011;54794;48.348;7.878;2022-07-29T09:00:52;6.85;;;1.40;;
68010;SDS011;54794;48.348;7.878;2022-07-29T09:03:23;4.82;;;1.30;;
68010;SDS011;54794;48.348;7.878;2022-07-29T09:05:55;4.03;;;1.40;;
68010;SDS011;54794;48.348;7.878;2022-07-29T09:08:27;6.03;;;1.40;;
68010;SDS011;54794;48.348;7.878;2022-07-29T09:10:55;1.92;;;1.13;;
68010;SDS011;54794;48.348;7.878;2022-07-29T09:13:22;2.25;;;1.33;;
68010;SDS011;54794;48.348;7.878;2022-07-29T09:21:03;1.25;;;1.10;;
68010;SDS011;54794;48.348;7.878;2022-07-29T09:24:01;2.78;;;1.27;;
68010;SDS011;54794;48.348;7.878;2022-07-29T09:26:40;3.03;;;1.42;;
68010;SDS011;54794;48.348;7.878;2022-07-29T09:29:15;2.55;;;1.30;;
68010;SDS011;54794;48.348;7.878;2022-07-29T09:31:49;2.83;;;1.30;;
68010;SDS011;54794;48.348;7.878;2022-07-29T09:34:25;5.20;;;1.50;;
68010;SDS011;54794;48.348;7.878;2022-07-29T09:36:57;2.55;;;1.30;;
68010;SDS011;54794;48.348;7.878;2022-07-29T09:42:05;2.13;;;1.25;;
68010;SDS011;54794;48.348;7.878;2022-07-29T09:47:17;2.30;;;1.27;;
68010;SDS011;54794;48.348;7.878;2022-07-29T09:52:24;2.53;;;1.00;;
68010;SDS011;54794;48.348;7.878;2022-07-29T09:55:06;2.45;;;1.55;;
68010;SDS011;54794;48.348;7.878;2022-07-29T09:57:38;4.18;;;1.60;;
68010;SDS011;54794;48.348;7.878;2022-07-29T10:00:07;2.47;;;1.60;;
68010;SDS011;54794;48.348;7.878;2022-07-29T10:02:42;4.43;;;1.30;;
68010;SDS011;54794;48.348;7.878;2022-07-29T10:08:02;5.70;;;1.20;;
68010;SDS011;54794;48.348;7.878;2022-07-29T10:10:30;3.10;;;1.27;;
68010;SDS011;54794;48.348;7.878;2022-07-29T10:13:01;6.55;;;1.48;;
68010;SDS011;54794;48.348;7.878;2022-07-29T10:15:38;5.63;;;1.50;;
68010;SDS011;54794;48.348;7.878;2022-07-29T10:18:11;4.38;;;1.20;;
68010;SDS011;54794;48.348;7.878;2022-07-29T10:20:40;3.67;;;1.40;;
68010;SDS011;54794;48.348;7.878;2022-07-29T10:25:35;2.20;;;1.20;;
68010;SDS011;54794;48.348;7.878;2022-07-29T10:28:02;3.53;;;1.10;;
68010;SDS011;54794;48.348;7.878;2022-07-29T10:30:32;2.40;;;1.20;;
68010;SDS011;54794;48.348;7.878;2022-07-29T10:35:44;3.35;;;1.30;;
68010;SDS011;54794;48.348;7.878;2022-07-29T10:38:58;1.83;;;1.13;;
68010;SDS011;54794;48.348;7.878;2022-07-29T10:44:45;3.97;;;1.30;;
68010;SDS011;54794;48.348;7.878;2022-07-29T10:47:20;1.75;;;1.00;;
68010;SDS011;54794;48.348;7.878;2022-07-29T10:58:12;1.77;;;1.15;;
68010;SDS011;54794;48.348;7.878;2022-07-29T11:00:50;3.72;;;1.00;;
68010;SDS011;54794;48.348;7.878;2022-07-29T11:06:50;2.40;;;1.20;;
68010;SDS011;54794;48.348;7.878;2022-07-29T11:09:29;2.67;;;1.13;;
68010;SDS011;54794;48.348;7.878;2022-07-29T11:12:03;4.78;;;1.45;;
68010;SDS011;54794;48.348;7.878;2022-07-29T11:15:02;3.75;;;1.20;;
68010;SDS011;54794;48.348;7.878;2022-07-29T11:31:42;2.30;;;1.10;;
68010;SDS011;54794;48.348;7.878;2022-07-29T11:48:00;3.45;;;0.77;;
68010;SDS011;54794;48.348;7.878;2022-07-29T11:50:46;2.00;;;0.90;;
68010;SDS011;54794;48.348;7.878;2022-07-29T11:53:14;2.42;;;1.15;;
68010;SDS011;54794;48.348;7.878;2022-07-29T11:55:42;3.08;;;1.15;;
68010;SDS011;54794;48.348;7.878;2022-07-29T11:58:20;2.03;;;0.93;;
68010;SDS011;54794;48.348;7.878;2022-07-29T12:00:52;7.88;;;1.38;;
68010;SDS011;54794;48.348;7.878;2022-07-29T12:03:24;3.53;;;1.40;;
68010;SDS011;54794;48.348;7.878;2022-07-29T12:06:01;1.67;;;0.95;;
68010;SDS011;54794;48.348;7.878;2022-07-29T12:08:39;1.42;;;1.02;;
68010;SDS011;54794;48.348;7.878;2022-07-29T12:11:16;3.35;;;1.35;;
68010;SDS011;54794;48.348;7.878;2022-07-29T12:13:47;2.35;;;1.35;;
68010;SDS011;54794;48.348;7.878;2022-07-29T12:16:15;2.53;;;1.10;;
68010;SDS011;54794;48.348;7.878;2022-07-29T12:19:04;1.67;;;1.17;;
68010;SDS011;54794;48.348;7.878;2022-07-29T12:21:46;1.20;;;0.80;;
68010;SDS011;54794;48.348;7.878;2022-07-29T12:24:26;2.53;;;0.98;;
68010;SDS011;54794;48.348;7.878;2022-07-29T12:26:53;1.50;;;1.17;;
68010;SDS011;54794;48.348;7.878;2022-07-29T12:29:23;1.45;;;0.77;;
68010;SDS011;54794;48.348;7.878;2022-07-29T12:34:29;1.20;;;0.90;;
68010;SDS011;54794;48.348;7.878;2022-07-29T12:36:56;1.27;;;0.90;;
68010;SDS011;54794;48.348;7.878;2022-07-29T12:39:24;1.83;;;1.00;;
68010;SDS011;54794;48.348;7.878;2022-07-29T12:41:54;1.83;;;1.00;;
68010;SDS011;54794;48.348;7.878;2022-07-29T12:44:51;3.47;;;1.10;;
68010;SDS011;54794;48.348;7.878;2022-07-29T12:47:18;1.38;;;0.93;;
68010;SDS011;54794;48.348;7.878;2022-07-29T12:49:46;2.15;;;1.20;;
68010;SDS011;54794;48.348;7.878;2022-07-29T12:52:24;5.18;;;1.20;;
68010;SDS011;54794;48.348;7.878;2022-07-29T12:54:53;1.88;;;1.00;;
68010;SDS011;54794;48.348;7.878;2022-07-29T12:57:20;2.42;;;1.27;;
68010;SDS011;54794;48.348;7.878;2022-07-29T13:00:10;1.75;;;0.93;;
68010;SDS011;54794;48.348;7.878;2022-07-29T13:02:40;1.52;;;0.90;;
68010;SDS011;54794;48.348;7.878;2022-07-29T13:05:09;3.17;;;1.30;;
68010;SDS011;54794;48.348;7.878;2022-07-29T13:07:38;3.30;;;0.90;;
68010;SDS011;54794;48.348;7.878;2022-07-29T13:10:22;1.55;;;0.88;;
68010;SDS011;54794;48.348;7.878;2022-07-29T13:13:04;1.15;;;0.80;;
68010;SDS011;54794;48.348;7.878;2022-07-29T13:15:36;1.50;;;1.10;;
68010;SDS011;54794;48.348;7.878;2022-07-29T13:21:11;4.53;;;1.10;;
68010;SDS011;54794;48.348;7.878;2022-07-29T13:23:41;2.13;;;1.17;;
68010;SDS011;54794;48.348;7.878;2022-07-29T13:26:09;2.40;;;1.20;;
68010;SDS011;54794;48.348;7.878;2022-07-29T13:28:42;2.53;;;0.90;;
68010;SDS011;54794;48.348;7.878;2022-07-29T13:31:09;5.28;;;1.10;;
68010;SDS011;54794;48.348;7.878;2022-07-29T13:33:37;2.05;;;0.90;;
68010;SDS011;54794;48.348;7.878;2022-07-29T13:36:03;1.75;;;1.00;;
68010;SDS011;54794;48.348;7.878;2022-07-29T13:40:58;1.80;;;0.68;;
68010;SDS011;54794;48.348;7.878;2022-07-29T13:45:51;0.80;;;0.70;;
68010;SDS011;54794;48.348;7.878;2022-07-29T13:48:18;7.28;;;1.23;;
68010;SDS011;54794;48.348;7.878;2022-07-29T13:50:45;1.60;;;1.00;;
68010;SDS011;54794;48.348;7.878;2022-07-29T13:53:14;2.08;;;0.90;;
68010;SDS011;54794;48.348;7.878;2022-07-29T13:55:43;3.05;;;1.13;;
68010;SDS011;54794;48.348;7.878;2022-07-29T14:00:37;1.20;;;0.90;;
68010;SDS011;54794;48.348;7.878;2022-07-29T14:03:04;1.92;;;0.98;;
68010;SDS011;54794;48.348;7.878;2022-07-29T14:05:32;3.13;;;1.10;;
68010;SDS011;54794;48.348;7.878;2022-07-29T14:07:59;2.40;;;0.80;;
68010;SDS011;54794;48.348;7.878;2022-07-29T14:10:26;1.52;;;0.95;;
68010;SDS011;54794;48.348;7.878;2022-07-29T14:15:20;4.32;;;0.98;;
68010;SDS011;54794;48.348;7.878;2022-07-29T14:17:47;3.95;;;1.05;;
68010;SDS011;54794;48.348;7.878;2022-07-29T14:20:13;4.13;;;1.58;;
68010;SDS011;54794;48.348;7.878;2022-07-29T14:22:42;3.33;;;1.23;;
68010;SDS011;54794;48.348;7.878;2022-07-29T14:25:10;1.30;;;0.95;;
68010;SDS011;54794;48.348;7.878;2022-07-29T14:27:40;2.65;;;1.10;;
68010;SDS011;54794;48.348;7.878;2022-07-29T14:30:09;1.95;;;1.00;;
68010;SDS011;54794;48.348;7.878;2022-07-29T14:32:37;1.05;;;0.90;;
68010;SDS011;54794;48.348;7.878;2022-07-29T14:35:04;1.00;;;0.77;;
68010;SDS011;54794;48.348;7.878;2022-07-29T14:37:32;1.83;;;1.00;;
68010;SDS011;54794;48.348;7.878;2022-07-29T14:40:05;1.55;;;1.10;;
68010;SDS011;54794;48.348;7.878;2022-07-29T14:42:34;2.30;;;1.30;;
68010;SDS011;54794;48.348;7.878;2022-07-29T14:45:03;4.35;;;1.20;;
68010;SDS011;54794;48.348;7.878;2022-07-29T14:47:33;1.92;;;1.15;;
68010;SDS011;54794;48.348;7.878;2022-07-29T14:50:00;1.30;;;0.90;;
68010;SDS011;54794;48.348;7.878;2022-07-29T14:52:28;4.57;;;0.93;;
68010;SDS011;54794;48.348;7.878;2022-07-29T14:54:55;3.60;;;1.30;;
68010;SDS011;54794;48.348;7.878;2022-07-29T14:57:22;3.22;;;1.10;;
68010;SDS011;54794;48.348;7.878;2022-07-29T14:59:49;1.33;;;0.90;;
68010;SDS011;54794;48.348;7.878;2022-07-29T15:04:43;2.75;;;1.10;;
68010;SDS011;54794;48.348;7.878;2022-07-29T15:07:12;1.58;;;0.82;;
68010;SDS011;54794;48.348;7.878;2022-07-29T15:12:15;2.40;;;0.88;;
68010;SDS011;54794;48.348;7.878;2022-07-29T15:14:42;4.05;;;0.80;;
68010;SDS011;54794;48.348;7.878;2022-07-29T15:17:09;2.83;;;0.90;;
68010;SDS011;54794;48.348;7.878;2022-07-29T15:19:36;1.85;;;0.90;;
68010;SDS011;54794;48.348;7.878;2022-07-29T15:24:31;3.75;;;1.15;;
68010;SDS011;54794;48.348;7.878;2022-07-29T15:29:25;3.42;;;1.00;;
68010;SDS011;54794;48.348;7.878;2022-07-29T15:31:52;5.43;;;0.98;;
68010;SDS011;54794;48.348;7.878;2022-07-29T15:34:19;2.42;;;0.93;;
68010;SDS011;54794;48.348;7.878;2022-07-29T15:39:18;2.17;;;0.75;;
68010;SDS011;54794;48.348;7.878;2022-07-29T15:41:46;4.13;;;0.90;;
68010;SDS011;54794;48.348;7.878;2022-07-29T15:44:14;2.35;;;1.05;;
68010;SDS011;54794;48.348;7.878;2022-07-29T15:46:42;4.72;;;0.80;;
68010;SDS011;54794;48.348;7.878;2022-07-29T15:49:40;3.00;;;1.00;;
68010;SDS011;54794;48.348;7.878;2022-07-29T15:52:15;4.07;;;0.90;;
68010;SDS011;54794;48.348;7.878;2022-07-29T15:54:51;4.80;;;1.10;;
68010;SDS011;54794;48.348;7.878;2022-07-29T15:57:20;2.13;;;0.90;;
68010;SDS011;54794;48.348;7.878;2022-07-29T15:59:48;1.27;;;0.90;;
68010;SDS011;54794;48.348;7.878;2022-07-29T16:02:15;5.57;;;1.40;;
68010;SDS011;54794;48.348;7.878;2022-07-29T16:07:10;2.55;;;1.08;;
68010;SDS011;54794;48.348;7.878;2022-07-29T16:09:39;5.20;;;0.90;;
68010;SDS011;54794;48.348;7.878;2022-07-29T16:12:07;1.02;;;0.65;;
68010;SDS011;54794;48.348;7.878;2022-07-29T16:14:40;2.60;;;0.90;;
68010;SDS011;54794;48.348;7.878;2022-07-29T16:17:08;1.55;;;1.00;;
68010;SDS011;54794;48.348;7.878;2022-07-29T16:19:40;4.85;;;1.00;;
68010;SDS011;54794;48.348;7.878;2022-07-29T16:22:08;4.97;;;0.95;;
68010;SDS011;54794;48.348;7.878;2022-07-29T16:24:36;2.35;;;0.85;;
68010;SDS011;54794;48.348;7.878;2022-07-29T16:27:04;0.63;;;0.50;;
68010;SDS011;54794;48.348;7.878;2022-07-29T16:29:32;2.65;;;1.00;;
68010;SDS011;54794;48.348;7.878;2022-07-29T16:32:00;4.82;;;1.40;;
68010;SDS011;54794;48.348;7.878;2022-07-29T16:34:28;1.85;;;0.80;;
68010;SDS011;54794;48.348;7.878;2022-07-29T16:36:55;2.63;;;0.70;;
68010;SDS011;54794;48.348;7.878;2022-07-29T16:41:49;0.90;;;0.55;;
68010;SDS011;54794;48.348;7.878;2022-07-29T16:46:44;1.67;;;0.65;;
68010;SDS011;54794;48.348;7.878;2022-07-29T16:49:13;1.63;;;0.80;;
68010;SDS011;54794;48.348;7.878;2022-07-29T16:51:44;1.15;;;0.63;;
68010;SDS011;54794;48.348;7.878;2022-07-29T16:54:13;1.23;;;0.80;;
68010;SDS011;54794;48.348;7.878;2022-07-29T16:56:40;5.57;;;0.90;;
68010;SDS011;54794;48.348;7.878;2022-07-29T16:59:08;1.38;;;0.90;;
68010;SDS011;54794;48.348;7.878;2022-07-29T17:01:36;2.50;;;0.80;;
68010;SDS011;54794;48.348;7.878;2022-07-29T17:04:04;2.13;;;0.68;;
68010;SDS011;54794;48.348;7.878;2022-07-29T17:06:35;1.83;;;0.88;;
68010;SDS011;54794;48.348;7.878;2022-07-29T17:09:05;1.58;;;0.80;;
68010;SDS011;54794;48.348;7.878;2022-07-29T17:11:35;4.57;;;0.95;;
68010;SDS011;54794;48.348;7.878;2022-07-29T17:14:20;2.03;;;0.70;;
68010;SDS011;54794;48.348;7.878;2022-07-29T17:16:59;5.68;;;1.23;;
68010;SDS011;54794;48.348;7.878;2022-07-29T17:19:29;2.35;;;0.82;;